Time;durP1;ratioP1;P1;durP2;ratioP2;P2;SDS_P1;SDS_P2;PMS_P1;PMS_P2;Temp;Humidity;BMP_temperature;BMP_pressure;BME280_temperature;BME280_humidity;BME280_pressure;Samples;Min_cycle;Max_cycle;Signal;HPM_P1;HPM_P2
2021/05/15 00:00:26;;;;;;;55.27;20.73;;;;;;;18.05;46.29;100251.63;5117328;27;20523;-55
2021/05/15 00:02:53;;;;;;;47.53;20.83;;;;;;;18.29;45.04;100249.94;5118538;28;20746;-54
2021/05/15 00:05:20;;;;;;;78.50;26.23;;;;;;;18.21;45.63;100248.19;5117295;28;20466;-54
2021/05/15 00:07:46;;;;;;;58.40;21.33;;;;;;;18.33;45.68;100243.88;5118252;28;20491;-54
2021/05/15 00:10:13;;;;;;;54.77;21.20;;;;;;;18.13;46.25;100251.66;5117330;27;20497;-55
2021/05/15 00:12:39;;;;;;;46.23;19.03;;;;;;;17.80;46.73;100244.56;5118442;28;20738;-55
2021/05/15 00:15:07;;;;;;;44.17;19.30;;;;;;;17.83;46.98;100248.06;5117003;28;20478;-55
2021/05/15 00:17:33;;;;;;;50.23;22.10;;;;;;;17.53;47.22;100246.19;5117724;28;20449;-55
2021/05/15 00:20:00;;;;;;;57.37;18.30;;;;;;;17.30;47.73;100253.91;5117037;27;20473;-54
2021/05/15 00:22:26;;;;;;;47.80;20.60;;;;;;;17.87;46.75;100255.03;5118253;28;20464;-55
2021/05/15 00:24:53;;;;;;;50.20;19.40;;;;;;;17.74;47.22;100256.72;5116737;28;20969;-55
2021/05/15 00:27:19;;;;;;;44.17;19.57;;;;;;;17.44;47.64;100251.38;5117958;28;20528;-55
2021/05/15 00:29:48;;;;;;;45.37;18.30;;;;;;;17.62;47.61;100245.38;5115931;28;20498;-55
2021/05/15 00:32:14;;;;;;;48.40;16.70;;;;;;;17.48;47.86;100247.06;5117785;28;20479;-53
2021/05/15 00:34:40;;;;;;;46.30;20.27;;;;;;;17.56;46.92;100247.94;5116677;27;20471;-55
2021/05/15 00:37:07;;;;;;;51.30;22.27;;;;;;;17.59;47.01;100255.78;5118011;28;20760;-55
2021/05/15 00:39:33;;;;;;;41.97;15.70;;;;;;;17.51;46.90;100249.66;5116610;28;20468;-54
2021/05/15 00:42:00;;;;;;;48.67;19.67;;;;;;;18.07;45.60;100255.13;5117814;28;20459;-54
2021/05/15 00:44:42;;;;;;;47.23;19.77;;;;;;;18.46;44.52;100248.22;5116544;27;20460;-55
2021/05/15 00:47:08;;;;;;;41.70;17.47;;;;;;;18.59;44.54;100245.63;5115340;28;20445;-56
2021/05/15 00:49:34;;;;;;;41.63;18.07;;;;;;;19.35;42.97;100242.09;5115336;27;20470;-55
2021/05/15 00:52:01;;;;;;;45.40;19.30;;;;;;;18.96;43.87;100245.63;5117262;28;20477;-56
2021/05/15 00:54:28;;;;;;;45.30;19.50;;;;;;;18.60;43.87;100248.25;5116652;28;20579;-56
2021/05/15 00:56:54;;;;;;;47.30;20.63;;;;;;;18.83;43.67;100249.13;5117751;27;20447;-53
2021/05/15 00:59:20;;;;;;;47.13;18.30;;;;;;;19.27;42.94;100239.50;5115996;27;20496;-54
2021/05/15 01:01:46;;;;;;;47.13;21.03;;;;;;;19.36;42.83;100225.53;5117368;28;20443;-55
2021/05/15 01:04:13;;;;;;;51.73;19.80;;;;;;;19.75;41.75;100231.50;5116827;28;20469;-56
2021/05/15 01:06:39;;;;;;;46.40;20.23;;;;;;;19.64;42.30;100234.16;5117512;28;20452;-54
2021/05/15 01:09:06;;;;;;;47.27;18.57;;;;;;;19.28;42.69;100231.66;5116575;27;20496;-56
2021/05/15 01:11:34;;;;;;;45.10;20.17;;;;;;;19.81;41.75;100226.25;5117613;27;20525;-52
2021/05/15 01:14:02;;;;;;;43.67;18.60;;;;;;;19.50;42.21;100229.00;5116095;27;20555;-54
2021/05/15 01:16:29;;;;;;;37.80;18.27;;;;;;;19.42;42.04;100226.38;5117176;28;20531;-54
2021/05/15 01:18:55;;;;;;;40.10;18.47;;;;;;;19.71;41.74;100235.00;5115839;27;20514;-50
2021/05/15 01:21:21;;;;;;;40.83;17.43;;;;;;;19.83;41.33;100218.34;5117110;28;20875;-50
2021/05/15 01:23:47;;;;;;;39.83;18.87;;;;;;;19.51;42.24;100222.88;5116275;28;20746;-51
2021/05/15 01:26:15;;;;;;;52.00;23.63;;;;;;;19.73;42.46;100222.78;5117486;28;20500;-52
2021/05/15 01:28:41;;;;;;;45.20;19.17;;;;;;;19.47;42.41;100223.75;5116293;28;20498;-52
2021/05/15 01:31:07;;;;;;;50.60;21.60;;;;;;;19.88;41.82;100223.59;5117339;28;20581;-55
2021/05/15 01:33:33;;;;;;;45.23;18.90;;;;;;;19.86;41.43;100217.47;5117245;28;20962;-53
2021/05/15 01:35:59;;;;;;;43.00;18.23;;;;;;;19.53;41.93;100222.88;5116219;28;20498;-51
2021/05/15 01:38:26;;;;;;;36.50;17.27;;;;;;;19.32;43.00;100221.19;5116927;28;20463;-52
2021/05/15 01:40:52;;;;;;;37.53;16.93;;;;;;;19.03;42.84;100215.16;5115280;28;20924;-54
2021/05/15 01:43:19;;;;;;;31.23;16.33;;;;;;;18.71;43.16;100214.28;5116672;28;20554;-52
2021/05/15 01:45:45;;;;;;;40.30;15.90;;;;;;;18.06;45.02;100224.69;5115314;27;20481;-52
2021/05/15 01:48:15;;;;;;;43.80;19.20;;;;;;;19.36;42.55;100221.19;5116174;28;20453;-54
2021/05/15 01:50:41;;;;;;;36.10;17.70;;;;;;;19.33;41.92;100212.47;5109829;28;20500;-50
2021/05/15 01:53:07;;;;;;;41.03;17.33;;;;;;;19.11;42.79;100212.50;5117416;28;20863;-50
2021/05/15 01:55:33;;;;;;;38.03;15.97;;;;;;;18.66;43.76;100221.25;5116024;27;20542;-54
2021/05/15 01:57:59;;;;;;;35.73;15.47;;;;;;;19.24;42.57;100214.25;5117099;28;20460;-50
2021/05/15 02:00:25;;;;;;;36.30;15.90;;;;;;;18.75;42.80;100208.19;5116333;27;20475;-52
2021/05/15 02:02:51;;;;;;;36.73;16.90;;;;;;;19.14;42.31;100204.69;5117298;28;20436;-52
2021/05/15 02:05:17;;;;;;;32.27;15.07;;;;;;;18.82;43.31;100203.81;5115975;27;20482;-51
2021/05/15 02:07:43;;;;;;;39.63;16.77;;;;;;;19.09;42.35;100201.19;5116854;28;20764;-48
2021/05/15 02:10:11;;;;;;;40.93;16.83;;;;;;;18.79;43.40;100202.94;5115937;27;20477;-52
2021/05/15 02:12:38;;;;;;;34.80;17.20;;;;;;;18.37;44.37;100206.47;5117158;28;20440;-51
2021/05/15 02:15:07;;;;;;;43.57;16.47;;;;;;;18.55;43.72;100212.56;5115829;27;20725;-53
2021/05/15 02:17:33;;;;;;;32.37;13.30;;;;;;;18.29;43.57;100205.56;5116372;27;20784;-50
2021/05/15 02:19:59;;;;;;;35.07;15.73;;;;;;;19.06;42.32;100201.22;5115729;27;20488;-52
2021/05/15 02:22:25;;;;;;;39.57;16.00;;;;;;;19.07;42.16;100200.34;5116577;28;20502;-54
2021/05/15 02:24:51;;;;;;;38.77;16.60;;;;;;;19.09;42.49;100189.00;5115754;27;20482;-52
2021/05/15 02:27:16;;;;;;;32.67;14.93;;;;;;;18.54;43.36;100202.97;5116445;28;20434;-53
2021/05/15 02:29:43;;;;;;;33.93;15.73;;;;;;;18.76;42.78;100195.97;5115227;27;20791;-50
2021/05/15 02:32:09;;;;;;;39.30;16.03;;;;;;;19.20;41.83;100193.31;5116554;28;20533;-50
2021/05/15 02:34:35;;;;;;;37.67;16.93;;;;;;;18.80;42.16;100186.41;5115636;27;20475;-53
2021/05/15 02:37:01;;;;;;;42.60;18.07;;;;;;;19.03;42.11;100183.81;5116477;28;20576;-51
2021/05/15 02:39:27;;;;;;;32.83;16.80;;;;;;;19.02;41.71;100187.22;5114873;27;20473;-49
2021/05/15 02:41:53;;;;;;;31.97;15.43;;;;;;;18.62;42.92;100189.03;5115061;28;20451;-52
2021/05/15 02:44:19;;;;;;;26.63;13.87;;;;;;;18.99;41.93;100193.34;5114903;27;20755;-51
2021/05/15 02:46:46;;;;;;;37.27;15.17;;;;;;;18.80;41.93;100191.63;5116030;28;20487;-51
2021/05/15 02:49:12;;;;;;;43.93;16.20;;;;;;;19.08;41.48;100192.47;5115150;27;20480;-51
2021/05/15 02:51:38;;;;;;;33.93;16.10;;;;;;;19.19;40.91;100183.75;5116371;28;20474;-52
2021/05/15 02:54:04;;;;;;;34.80;16.67;;;;;;;19.08;41.82;100183.78;5115188;27;20467;-53
2021/05/15 02:56:30;;;;;;;36.80;16.53;;;;;;;18.65;41.98;100185.56;5116137;28;20534;-53
2021/05/15 02:58:56;;;;;;;33.17;15.17;;;;;;;19.20;41.21;100173.28;5115127;27;20472;-51
2021/05/15 03:01:23;;;;;;;34.57;17.03;;;;;;;18.99;41.43;100180.28;5115132;28;20436;-52
2021/05/15 03:03:50;;;;;;;39.30;15.70;;;;;;;18.89;41.82;100181.16;5114996;27;20437;-52
2021/05/15 03:06:16;;;;;;;32.47;15.63;;;;;;;19.03;41.47;100179.41;5114307;28;20516;-53
2021/05/15 03:08:42;;;;;;;35.30;16.17;;;;;;;18.58;42.38;100170.75;5113848;28;20469;-53
2021/05/15 03:11:08;;;;;;;33.37;16.20;;;;;;;18.72;41.60;100174.22;5115595;28;20531;-53
2021/05/15 03:13:34;;;;;;;36.80;16.40;;;;;;;18.43;42.66;100182.97;5115834;28;20863;-51
2021/05/15 03:16:00;;;;;;;40.83;16.07;;;;;;;19.02;41.49;100177.69;5114625;28;20506;-53
2021/05/15 03:18:26;;;;;;;34.97;16.00;;;;;;;19.16;41.21;100179.38;5115434;28;20450;-51
2021/05/15 03:20:52;;;;;;;34.63;17.40;;;;;;;19.63;40.44;100171.38;5114739;28;20823;-54
2021/05/15 03:23:18;;;;;;;30.97;15.60;;;;;;;19.75;39.68;100173.94;5115857;28;20615;-51
2021/05/15 03:25:44;;;;;;;30.43;16.37;;;;;;;19.08;41.07;100175.94;5114325;28;20821;-53
2021/05/15 03:28:10;;;;;;;36.60;16.03;;;;;;;19.14;41.06;100168.94;5115400;28;20466;-52
2021/05/15 03:30:36;;;;;;;35.03;15.30;;;;;;;19.24;40.75;100171.53;5114466;28;20483;-54
2021/05/15 03:33:02;;;;;;;42.00;18.60;;;;;;;18.62;41.99;100175.13;5115360;28;20876;-56
2021/05/15 03:35:30;;;;;;;32.53;15.83;;;;;;;18.75;41.52;100166.38;5114155;28;20564;-53
2021/05/15 03:37:58;;;;;;;40.00;15.87;;;;;;;18.64;42.36;100170.75;5114966;28;20461;-53
2021/05/15 03:40:24;;;;;;;32.30;14.97;;;;;;;18.47;42.36;100166.41;5111281;27;20512;-54
2021/05/15 03:42:54;;;;;;;32.87;15.77;;;;;;;18.67;42.20;100169.88;5115074;28;20745;-54
2021/05/15 03:45:20;;;;;;;33.03;15.83;;;;;;;18.57;42.36;100163.78;5113798;27;20485;-55
2021/05/15 03:47:46;;;;;;;30.87;15.83;;;;;;;19.29;40.93;100161.94;5114823;28;20471;-55
2021/05/15 03:50:13;;;;;;;29.40;15.60;;;;;;;19.27;40.85;100158.44;5113821;28;20468;-55
2021/05/15 03:52:39;;;;;;;32.70;15.10;;;;;;;19.01;41.24;100165.47;5115236;28;20581;-54
2021/05/15 03:55:07;;;;;;;31.80;15.20;;;;;;;18.82;41.79;100169.84;5114502;27;20500;-53
2021/05/15 03:57:33;;;;;;;35.30;16.40;;;;;;;19.12;41.50;100162.00;5115119;28;20440;-52
2021/05/15 03:59:59;;;;;;;35.97;16.57;;;;;;;18.96;42.28;100155.88;5114389;27;20549;-52
2021/05/15 04:02:25;;;;;;;36.07;16.47;;;;;;;18.68;42.87;100163.78;5115691;28;20460;-49
2021/05/15 04:04:51;;;;;;;44.53;16.73;;;;;;;18.63;43.13;100159.41;5114556;27;20489;-52
2021/05/15 04:07:18;;;;;;;37.30;16.93;;;;;;;18.20;44.07;100168.13;5115248;28;20891;-53
2021/05/15 04:09:44;;;;;;;37.67;17.70;;;;;;;18.64;42.83;100170.75;5114102;27;20490;-54
2021/05/15 04:12:13;;;;;;;36.30;16.50;;;;;;;19.22;41.54;100166.28;5116227;28;20484;-52
2021/05/15 04:14:42;;;;;;;35.20;14.90;;;;;;;19.13;41.71;100169.81;5118079;28;20466;-50
2021/05/15 04:17:19;;;;;;;39.33;16.10;;;;;;;18.65;43.13;100175.09;5118895;28;20713;-52
2021/05/15 04:19:45;;;;;;;44.03;16.97;;;;;;;18.52;43.53;100170.75;5118003;27;20483;-49
2021/05/15 04:22:11;;;;;;;33.10;16.50;;;;;;;18.94;42.17;100168.97;5119075;28;20437;-49
2021/05/15 04:24:37;;;;;;;35.00;16.50;;;;;;;18.98;42.10;100170.69;5117739;28;20537;-51
2021/05/15 04:27:04;;;;;;;38.90;16.90;;;;;;;18.76;42.21;100170.75;5118977;28;20433;-52
2021/05/15 04:29:32;;;;;;;44.63;18.37;;;;;;;19.02;42.06;100166.31;5117526;28;20474;-50
2021/05/15 04:31:58;;;;;;;38.97;17.13;;;;;;;18.96;42.40;100164.59;5118874;28;20485;-51
2021/05/15 04:34:28;;;;;;;36.97;18.00;;;;;;;19.05;42.08;100162.84;5117421;28;20482;-52
2021/05/15 04:36:54;;;;;;;42.83;16.70;;;;;;;19.71;40.87;100156.50;5118581;28;20478;-50
2021/05/15 04:39:20;;;;;;;34.60;17.00;;;;;;;19.49;40.93;100158.34;5117401;28;21006;-51
2021/05/15 04:41:46;;;;;;;45.87;21.50;;;;;;;19.69;41.22;100156.50;5118873;28;20425;-51
2021/05/15 04:44:12;;;;;;;36.57;17.37;;;;;;;20.04;39.85;100153.72;5117478;28;20584;-51
2021/05/15 04:46:39;;;;;;;35.93;16.33;;;;;;;18.98;41.62;100160.22;5118411;28;20448;-54
2021/05/15 04:49:05;;;;;;;37.80;16.90;;;;;;;19.85;40.28;100153.81;5117465;28;20569;-50
2021/05/15 04:51:31;;;;;;;35.40;18.50;;;;;;;19.63;40.95;100153.06;5118454;28;20474;-49
2021/05/15 04:54:01;;;;;;;37.73;17.30;;;;;;;19.48;41.35;100149.63;5116444;27;20550;-52
2021/05/15 04:56:27;;;;;;;42.70;18.33;;;;;;;19.76;40.68;100146.88;5118332;28;20437;-54
2021/05/15 04:58:53;;;;;;;38.30;17.33;;;;;;;19.77;40.31;100146.00;5117336;28;20460;-53
2021/05/15 05:01:19;;;;;;;39.80;19.87;;;;;;;19.72;41.45;100142.53;5118433;28;20425;-48
2021/05/15 05:03:46;;;;;;;42.03;18.70;;;;;;;19.76;40.56;100148.63;5117225;27;20463;-51
2021/05/15 05:06:12;;;;;;;36.70;18.13;;;;;;;19.78;40.82;100147.72;5118024;28;20909;-52
2021/05/15 05:08:38;;;;;;;35.90;17.80;;;;;;;19.64;40.62;100139.94;5117801;28;20520;-53
2021/05/15 05:11:03;;;;;;;35.20;17.97;;;;;;;19.21;41.26;100148.88;5117257;28;20483;-52
2021/05/15 05:13:29;;;;;;;46.57;17.53;;;;;;;19.25;41.82;100148.00;5117984;28;20429;-52
2021/05/15 05:15:55;;;;;;;37.40;17.53;;;;;;;19.48;41.50;100149.63;5116860;28;20505;-53
2021/05/15 05:18:23;;;;;;;35.70;17.43;;;;;;;19.43;40.66;100156.63;5117189;28;20467;-53
2021/05/15 05:20:50;;;;;;;33.13;16.30;;;;;;;18.67;42.88;100152.44;5116566;28;20510;-50
2021/05/15 05:23:16;;;;;;;33.33;15.70;;;;;;;18.83;42.43;100162.88;5117604;28;20505;-52
2021/05/15 05:25:42;;;;;;;42.50;17.30;;;;;;;18.49;43.15;100164.69;5116237;28;20503;-50
2021/05/15 05:28:07;;;;;;;33.80;15.27;;;;;;;18.57;43.10;100167.25;5117536;28;20739;-51
2021/05/15 05:30:34;;;;;;;29.03;14.17;;;;;;;18.53;42.77;100173.38;5116572;28;20479;-52
2021/05/15 05:33:00;;;;;;;33.50;15.60;;;;;;;18.45;42.80;100181.22;5117718;28;20522;-50
2021/05/15 05:35:26;;;;;;;31.93;16.37;;;;;;;18.67;42.65;100175.09;5116441;28;20476;-54
2021/05/15 05:37:53;;;;;;;31.43;15.33;;;;;;;18.92;42.05;100175.06;5117455;28;20556;-52
2021/05/15 05:40:20;;;;;;;30.57;15.20;;;;;;;18.83;41.74;100171.63;5116454;28;20520;-51
2021/05/15 05:42:46;;;;;;;27.73;14.77;;;;;;;19.00;41.86;100168.97;5117468;28;20794;-49
2021/05/15 05:45:14;;;;;;;32.37;15.80;;;;;;;18.84;42.49;100168.13;5116298;27;20537;-51
2021/05/15 05:47:41;;;;;;;33.00;14.10;;;;;;;18.34;43.03;100175.09;5116822;28;20438;-52
2021/05/15 05:50:07;;;;;;;27.87;13.80;;;;;;;18.51;42.22;100179.47;5115697;28;20477;-52
2021/05/15 05:52:34;;;;;;;19.60;9.70;;;;;;;18.20;42.58;100182.94;5117560;28;20929;-52
2021/05/15 05:55:01;;;;;;;31.33;14.30;;;;;;;17.79;43.27;100180.22;5116217;28;20485;-51
2021/05/15 05:57:27;;;;;;;30.77;13.83;;;;;;;19.03;41.19;100171.59;5116863;28;20432;-51
2021/05/15 05:59:53;;;;;;;31.00;14.77;;;;;;;19.33;40.40;100171.47;5115974;28;20493;-50
2021/05/15 06:02:19;;;;;;;30.77;12.87;;;;;;;18.68;41.72;100164.66;5117086;28;20440;-52
2021/05/15 06:04:45;;;;;;;27.63;12.17;;;;;;;18.55;41.66;100181.22;5115760;28;20483;-53
2021/05/15 06:07:12;;;;;;;35.23;14.27;;;;;;;19.21;41.35;100181.97;5116982;28;20433;-51
2021/05/15 06:09:38;;;;;;;32.63;15.47;;;;;;;18.97;41.70;100178.56;5115643;28;20488;-53
2021/05/15 06:12:05;;;;;;;32.63;15.30;;;;;;;19.03;42.07;100181.19;5116872;28;20773;-52
2021/05/15 06:14:32;;;;;;;33.87;14.83;;;;;;;19.87;39.96;100177.34;5115744;28;20476;-54
2021/05/15 06:16:58;;;;;;;26.97;12.40;;;;;;;18.75;41.67;100175.97;5116607;28;20448;-53
2021/05/15 06:19:24;;;;;;;29.80;13.63;;;;;;;18.82;41.83;100175.06;5115503;28;20483;-51
2021/05/15 06:21:50;;;;;;;31.17;15.33;;;;;;;18.97;41.43;100171.56;5116706;28;20462;-50
2021/05/15 06:24:16;;;;;;;27.07;14.90;;;;;;;19.29;40.98;100175.84;5115725;28;20497;-53
2021/05/15 06:26:43;;;;;;;33.17;14.10;;;;;;;18.39;42.01;100175.97;5116329;28;20466;-51
2021/05/15 06:29:09;;;;;;;31.27;15.10;;;;;;;18.93;41.79;100169.84;5115646;28;20507;-52
2021/05/15 06:31:35;;;;;;;26.60;13.20;;;;;;;19.15;41.48;100169.81;5116471;28;20480;-53
2021/05/15 06:34:02;;;;;;;31.33;13.47;;;;;;;18.73;41.51;100170.72;5115024;28;20489;-53
2021/05/15 06:36:28;;;;;;;29.57;14.00;;;;;;;19.61;40.18;100167.88;5116074;28;20444;-52
2021/05/15 06:38:54;;;;;;;25.90;12.93;;;;;;;19.53;40.47;100170.56;5115495;28;21065;-55
2021/05/15 06:41:20;;;;;;;27.23;14.27;;;;;;;19.68;39.95;100172.19;5116336;28;20433;-52
2021/05/15 06:43:47;;;;;;;23.23;12.30;;;;;;;19.09;41.86;100172.44;5115171;28;20750;-51
2021/05/15 06:46:14;;;;;;;26.03;13.33;;;;;;;18.82;41.67;100174.22;5115992;28;20517;-50
2021/05/15 06:48:39;;;;;;;26.90;10.90;;;;;;;18.45;42.03;100181.22;5114638;28;20754;-52
2021/05/15 06:51:05;;;;;;;35.00;12.50;;;;;;;18.13;43.06;100179.44;5116218;28;20484;-49
2021/05/15 06:53:31;;;;;;;23.50;11.53;;;;;;;18.02;42.91;100179.41;5116259;28;20786;-52
2021/05/15 06:55:57;;;;;;;29.73;12.90;;;;;;;18.99;41.21;100175.06;5115351;28;20498;-54
2021/05/15 06:58:23;;;;;;;25.30;10.87;;;;;;;18.27;43.11;100186.41;5115689;28;20508;-52
2021/05/15 07:00:49;;;;;;;20.80;11.53;;;;;;;18.56;41.91;100180.34;5114554;28;20475;-51
2021/05/15 07:03:16;;;;;;;28.40;12.27;;;;;;;18.60;41.70;100182.06;5116344;28;20433;-54
2021/05/15 07:05:42;;;;;;;20.13;10.40;;;;;;;18.45;41.64;100186.44;5114765;28;20558;-50
2021/05/15 07:08:09;;;;;;;27.77;13.00;;;;;;;18.87;41.27;100173.31;5115544;28;20813;-52
2021/05/15 07:10:34;;;;;;;21.70;11.40;;;;;;;19.56;40.26;100179.25;5114929;28;20542;-50
2021/05/15 07:13:00;;;;;;;24.10;11.30;;;;;;;18.94;40.95;100176.81;5115979;28;20569;-53
2021/05/15 07:15:27;;;;;;;29.70;13.80;;;;;;;19.28;40.60;100175.88;5114640;28;20469;-55
2021/05/15 07:17:53;;;;;;;25.70;12.93;;;;;;;19.75;39.26;100176.56;5115290;28;20469;-53
2021/05/15 07:20:19;;;;;;;28.97;12.20;;;;;;;19.27;40.20;100172.38;5114512;28;20484;-54
2021/05/15 07:22:45;;;;;;;21.63;9.60;;;;;;;18.94;41.38;100171.59;5116047;28;20439;-51
2021/05/15 07:25:12;;;;;;;26.57;12.50;;;;;;;19.14;40.10;100171.53;5114603;28;20480;-53
2021/05/15 07:27:39;;;;;;;38.83;19.87;;;;;;;18.79;41.47;100175.09;5115394;28;20472;-52
2021/05/15 07:30:07;;;;;;;36.87;17.90;;;;;;;19.70;39.10;100167.84;5114411;28;20548;-52
2021/05/15 07:32:33;;;;;;;28.63;13.40;;;;;;;18.89;41.19;100175.94;5115693;28;20770;-51
2021/05/15 07:34:59;;;;;;;24.90;9.10;;;;;;;18.57;40.84;100169.03;5114697;28;20495;-51
2021/05/15 07:37:26;;;;;;;24.20;11.03;;;;;;;19.49;39.44;100161.81;5115570;28;20470;-51
2021/05/15 07:39:52;;;;;;;22.90;10.97;;;;;;;19.50;39.53;100162.72;5114336;28;20476;-52
2021/05/15 07:42:18;;;;;;;20.93;9.93;;;;;;;19.41;39.98;100153.16;5115684;28;20433;-51
2021/05/15 07:44:44;;;;;;;23.97;12.00;;;;;;;19.58;39.45;100157.44;5114303;28;20503;-51
2021/05/15 07:47:10;;;;;;;19.07;9.60;;;;;;;19.16;40.24;100155.84;5116497;28;20437;-53
2021/05/15 07:49:36;;;;;;;21.17;10.77;;;;;;;20.03;39.23;100158.06;5118473;28;20553;-53
2021/05/15 07:52:02;;;;;;;26.53;13.37;;;;;;;19.94;39.40;100152.88;5119639;28;20479;-53
2021/05/15 07:54:29;;;;;;;24.30;12.00;;;;;;;20.60;38.53;100161.97;5118485;28;20905;-51
2021/05/15 07:56:55;;;;;;;30.70;12.53;;;;;;;20.63;37.72;100159.31;5119330;28;20437;-53
2021/05/15 07:59:21;;;;;;;25.10;12.70;;;;;;;20.47;38.13;100155.97;5118248;28;20563;-55
2021/05/15 08:01:47;;;;;;;20.20;10.80;;;;;;;19.73;39.51;100154.72;5119650;28;20464;-52
2021/05/15 08:04:13;;;;;;;21.13;10.63;;;;;;;20.09;38.75;100155.41;5118295;28;20476;-51
2021/05/15 08:06:39;;;;;;;24.73;10.60;;;;;;;20.34;38.39;100152.59;5119296;28;21263;-53
2021/05/15 08:09:07;;;;;;;20.53;10.60;;;;;;;20.86;37.85;100158.25;5118429;28;20468;-51
2021/05/15 08:11:35;;;;;;;35.17;19.10;;;;;;;20.33;39.70;100156.09;5119203;28;20468;-54
2021/05/15 08:14:02;;;;;;;21.10;11.57;;;;;;;20.55;38.20;100161.16;5117661;28;20499;-53
2021/05/15 08:16:28;;;;;;;51.90;26.70;;;;;;;20.76;38.90;100154.84;5119233;28;20485;-52
2021/05/15 08:18:56;;;;;;;28.10;14.17;;;;;;;20.36;39.21;100150.81;5117983;28;20809;-54
2021/05/15 08:21:22;;;;;;;24.77;12.60;;;;;;;20.51;38.53;100154.22;5119182;28;20439;-51
2021/05/15 08:23:48;;;;;;;32.47;14.47;;;;;;;20.97;38.23;100154.66;5117797;28;20429;-51
2021/05/15 08:26:14;;;;;;;27.10;13.77;;;;;;;20.11;39.17;100155.41;5118848;28;20468;-52
2021/05/15 08:28:46;;;;;;;27.17;14.73;;;;;;;20.98;37.62;100154.63;5117740;28;21284;-51
2021/05/15 08:31:12;;;;;;;24.73;12.50;;;;;;;20.37;38.58;100163.03;5118612;28;20480;-52
2021/05/15 08:33:38;;;;;;;44.77;22.43;;;;;;;20.75;38.13;100162.72;5118928;28;20451;-56
2021/05/15 08:36:05;;;;;;;33.70;15.97;;;;;;;21.11;37.86;100163.25;5118329;28;20547;-50
2021/05/15 08:38:31;;;;;;;38.67;19.30;;;;;;;21.53;37.02;100159.25;5118482;28;20508;-50
2021/05/15 08:40:57;;;;;;;30.70;16.37;;;;;;;21.06;38.26;100157.16;5117379;28;20525;-52
2021/05/15 08:43:26;;;;;;;29.77;17.07;;;;;;;21.00;37.54;100165.09;5118797;28;20445;-50
2021/05/15 08:45:57;;;;;;;29.53;14.53;;;;;;;21.05;37.66;100155.44;5117316;28;20504;-49
2021/05/15 08:48:24;;;;;;;23.30;12.43;;;;;;;21.88;36.47;100155.28;5118156;28;20460;-51
2021/05/15 08:50:52;;;;;;;23.47;11.80;;;;;;;21.36;37.51;100155.06;5117191;28;20557;-51
2021/05/15 08:53:19;;;;;;;23.00;12.80;;;;;;;20.64;38.94;100155.84;5118345;28;20918;-51
2021/05/15 08:55:45;;;;;;;25.10;12.00;;;;;;;21.51;37.35;100158.38;5106778;28;20564;-54
2021/05/15 08:58:11;;;;;;;27.33;13.30;;;;;;;21.38;37.77;100152.44;5108245;28;20988;-51
2021/05/15 09:00:39;;;;;;;32.40;14.00;;;;;;;22.17;35.93;100150.47;5105210;27;20481;-53
2021/05/15 09:03:08;;;;;;;29.60;13.60;;;;;;;21.25;38.01;100146.47;5112047;28;20480;-48
2021/05/15 09:05:38;;;;;;;22.97;12.80;;;;;;;21.12;38.13;100151.84;5116573;27;20936;-52
2021/05/15 09:08:08;;;;;;;29.77;15.47;;;;;;;20.56;38.39;100149.78;5114647;28;20510;-53
2021/05/15 09:10:37;;;;;;;30.03;15.63;;;;;;;21.50;37.04;100147.03;5116931;28;20483;-51
2021/05/15 09:13:09;;;;;;;25.57;13.87;;;;;;;21.36;37.43;100133.22;5117872;28;20488;-52
2021/05/15 09:15:42;;;;;;;25.73;13.93;;;;;;;22.34;36.07;100130.03;5116734;28;20477;-50
2021/05/15 09:18:10;;;;;;;33.23;14.30;;;;;;;22.71;35.89;100136.44;5117619;28;20516;-52
2021/05/15 09:20:38;;;;;;;26.73;13.30;;;;;;;22.88;35.46;100130.88;5116696;28;20477;-54
2021/05/15 09:23:17;;;;;;;30.53;15.20;;;;;;;22.60;35.78;100131.38;5118102;28;20479;-53
2021/05/15 09:25:55;;;;;;;29.13;15.57;;;;;;;22.79;35.30;100124.03;5116502;28;20579;-50
2021/05/15 09:28:41;;;;;;;25.60;12.70;;;;;;;22.36;35.85;100122.16;5113014;28;20492;-53
2021/05/15 09:31:13;;;;;;;29.63;14.40;;;;;;;20.94;38.18;100126.72;5112527;28;20464;-55
2021/05/15 09:33:42;;;;;;;24.90;13.53;;;;;;;21.28;37.54;100131.56;5113740;28;20548;-56
2021/05/15 09:36:14;;;;;;;25.83;15.00;;;;;;;21.83;37.14;100130.84;5117066;28;20479;-54
2021/05/15 09:39:11;;;;;;;28.17;16.20;;;;;;;22.58;35.63;100124.41;5115043;28;20481;-55
2021/05/15 09:41:41;;;;;;;30.00;13.47;;;;;;;22.64;35.70;100124.28;5117176;28;20461;-56
2021/05/15 09:44:10;;;;;;;24.03;14.57;;;;;;;23.64;33.60;100115.25;5115494;27;20497;-52
2021/05/15 09:46:39;;;;;;;25.93;14.10;;;;;;;23.56;34.26;100114.59;5116562;28;20510;-55
2021/05/15 09:49:07;;;;;;;21.70;12.13;;;;;;;23.80;35.17;100107.91;5115502;28;20470;-53
2021/05/15 09:51:35;;;;;;;28.30;12.70;;;;;;;23.32;34.61;100103.69;5116778;28;20516;-55
2021/05/15 09:54:17;;;;;;;26.07;13.70;;;;;;;23.54;33.99;100104.06;5114880;27;20541;-52
2021/05/15 09:56:55;;;;;;;27.40;16.13;;;;;;;23.50;34.59;100102.44;5114470;28;20528;-55
2021/05/15 09:59:27;;;;;;;31.43;14.00;;;;;;;22.07;37.97;100105.09;5113293;28;20515;-55
2021/05/15 10:01:59;;;;;;;24.47;15.13;;;;;;;23.18;34.40;100096.09;5116690;28;20494;-57
2021/05/15 10:04:28;;;;;;;26.40;15.30;;;;;;;23.63;33.58;100092.47;5113390;28;20864;-55
2021/05/15 10:06:56;;;;;;;28.87;16.30;;;;;;;23.51;34.29;100088.38;5116411;28;20463;-55
2021/05/15 10:09:29;;;;;;;45.93;19.53;;;;;;;23.49;34.23;100092.81;5115124;27;20471;-55
2021/05/15 10:11:56;;;;;;;31.13;16.70;;;;;;;22.82;35.33;100086.28;5116448;28;20477;-56
2021/05/15 10:14:23;;;;;;;28.80;15.50;;;;;;;23.55;34.29;100079.50;5115074;27;20936;-53
2021/05/15 10:16:51;;;;;;;28.07;14.80;;;;;;;23.59;35.18;100083.78;5116041;27;21198;-54
2021/05/15 10:19:18;;;;;;;23.90;14.90;;;;;;;23.42;34.51;100078.03;5114976;28;20580;-55
2021/05/15 10:21:47;;;;;;;24.87;13.67;;;;;;;23.54;35.65;100075.13;5116196;28;20455;-55
2021/05/15 10:24:20;;;;;;;29.77;14.93;;;;;;;22.96;35.39;100078.09;5114809;27;20488;-54
2021/05/15 10:26:55;;;;;;;30.63;17.97;;;;;;;23.66;34.32;100074.00;5114079;28;20454;-55
2021/05/15 10:29:34;;;;;;;32.80;19.07;;;;;;;23.38;34.48;100071.13;5112537;28;20476;-52
2021/05/15 10:32:02;;;;;;;33.47;20.20;;;;;;;23.41;34.28;100074.56;5113565;28;20478;-55
2021/05/15 10:34:33;;;;;;;33.00;17.10;;;;;;;25.08;32.14;100068.53;5115112;27;20840;-57
2021/05/15 10:37:02;;;;;;;30.60;17.70;;;;;;;24.14;33.64;100057.03;5113057;28;20479;-50
2021/05/15 10:39:30;;;;;;;30.83;17.73;;;;;;;23.86;33.09;100060.34;5114766;27;20983;-52
2021/05/15 10:41:58;;;;;;;29.23;18.23;;;;;;;24.56;32.48;100056.84;5115647;28;20771;-53
2021/05/15 10:44:25;;;;;;;30.37;18.50;;;;;;;25.93;30.85;100052.78;5114940;28;20475;-52
2021/05/15 10:46:53;;;;;;;28.00;16.93;;;;;;;24.61;32.42;100045.25;5115948;28;20471;-55
2021/05/15 10:49:22;;;;;;;30.07;18.67;;;;;;;24.05;32.90;100051.97;5114497;27;20831;-52
2021/05/15 10:51:51;;;;;;;30.10;18.70;;;;;;;25.63;31.85;100044.94;5116208;28;20548;-51
2021/05/15 10:54:31;;;;;;;33.33;20.00;;;;;;;25.87;30.16;100032.69;5114561;27;20546;-50
2021/05/15 10:57:03;;;;;;;32.33;19.10;;;;;;;24.83;32.05;100034.13;5115813;28;20903;-50
2021/05/15 10:59:30;;;;;;;30.60;20.60;;;;;;;25.92;30.93;100024.59;5114763;27;20963;-52
2021/05/15 11:01:58;;;;;;;33.47;18.83;;;;;;;25.55;30.76;100021.41;5116137;28;20459;-53
2021/05/15 11:04:29;;;;;;;26.90;17.80;;;;;;;24.28;32.01;100024.19;5114509;27;20467;-55
2021/05/15 11:06:58;;;;;;;25.90;17.70;;;;;;;25.00;31.32;100006.38;5115538;28;20751;-50
2021/05/15 11:09:30;;;;;;;35.30;22.10;;;;;;;25.92;30.40;100007.00;5113486;28;20474;-51